KPPO

Details ICAO KPPO
Name LA PORTE MUNI
Region United States
Timezone America/Chicago (UTC-5.0)
Plans Departing 5
Arriving 2
Stats Elevation 812 ft / 247 m (AMSL)
Location 41.572662° -86.734535°
Runways 2
Magnetic Variation 4.611° W
Sunrise 2018-05-21 10:23:40 UTC / 2018-05-21 05:23:40 Local
Sunset 2018-05-22 01:06:17 UTC / 2018-05-21 20:06:17 Local
Advertisement - Login to hide

Runways

ID Width Length Bearing (true) Bearing (mag) Surface Threshold Offset Overrun Length
02 75 ft / 23 m 5,004 ft / 1,525 m 20.03° 24.64° Asphalt 0 ft / 0 m 0 ft / 0 m
14 60 ft / 18 m 2,799 ft / 853 m 134.29° 138.90° Asphalt 200 ft / 61 m 0 ft / 0 m
20 75 ft / 23 m 5,004 ft / 1,525 m 200.04° 204.65° Asphalt 0 ft / 0 m 0 ft / 0 m
32 60 ft / 18 m 2,799 ft / 853 m 314.29° 318.90° Asphalt 200 ft / 61 m 0 ft / 0 m

Map

Weather


0- 5 10 15 20 25 30 35+ Temperature / ° C

Clouds and Precipitation
Forecast for 2018-05-21 18:00 UTC. Updated 2 hours ago

Ground ~20,000 ft ~40,000 ft Winds

METAR

KPPO 211855Z AUTO 13011KT 10SM -RA SCT017 SCT034 BKN110 17/14 A3009 RMK AO2 T01650143

TAF

Not found

Frequencies

Recorded 119.82 MHz AWOS 3
Approach 132.05 MHz SOUTH BEND APP/DEP
Unicom 123.00 MHz CTAF/UNICOM
Warning: Do not use this data for real-world aviation or navigation. No guarantee of current accuracy is given.